Terminal Aerodrome Forecast
Issued by NWS

Home | Current Version | Previous Version | Text Only | Print | Product List | Glossary On
Versions: 1 2 3 4 5 6 7 8 9 10 11 12
000
FTUS43 KMPX 021134
TAFAXN
TAF
KAXN 021134Z 0212/0312 16015KT P6SM OVC250
     FM021500 17018G26KT P6SM BKN150
     FM022100 16020G28KT P6SM SCT050 BKN100
     FM030200 16015G22KT 6SM -TSRA OVC040CB
     FM030900 19007KT P6SM OVC015=

USA.gov is the U.S. government's official web portal to all federal, state and local government web resources and services.